Time;durP1;ratioP1;P1;durP2;ratioP2;P2;SDS_P1;SDS_P2;PMS_P1;PMS_P2;Temp;Humidity;BMP_temperature;BMP_pressure;BME280_temperature;BME280_humidity;BME280_pressure;Samples;Min_cycle;Max_cycle;Signal;HPM_P1;HPM_P2
2021/05/15 00:00:31;;;;;;;7.15;4.32;;;10.30;99.90;;;;;;5071297;28;20059;-55
2021/05/15 00:02:58;;;;;;;5.68;3.88;;;10.30;99.90;;;;;;5069230;28;20032;-54
2021/05/15 00:05:25;;;;;;;5.07;3.80;;;10.30;99.90;;;;;;5069611;28;20410;-55
2021/05/15 00:07:50;;;;;;;10.40;4.30;;;10.10;99.90;;;;;;5069562;28;20058;-53
2021/05/15 00:10:16;;;;;;;4.97;3.40;;;10.10;99.90;;;;;;5068570;28;20067;-52
2021/05/15 00:12:43;;;;;;;7.43;3.70;;;10.10;99.90;;;;;;5070309;28;20032;-52
2021/05/15 00:15:11;;;;;;;6.45;4.05;;;9.90;99.90;;;;;;5066825;28;20064;-53
2021/05/15 00:17:37;;;;;;;5.80;4.35;;;9.80;99.90;;;;;;5078314;28;20427;-53
2021/05/15 00:20:10;;;;;;;5.47;4.00;;;9.70;99.90;;;;;;5071187;28;20048;-54
2021/05/15 00:22:37;;;;;;;7.85;3.97;;;9.70;99.90;;;;;;5068434;28;20035;-55
2021/05/15 00:25:06;;;;;;;6.32;4.15;;;9.60;99.90;;;;;;5068468;28;20089;-57
2021/05/15 00:27:32;;;;;;;6.13;4.20;;;9.50;99.90;;;;;;5068286;28;20032;-54
2021/05/15 00:29:58;;;;;;;5.07;3.70;;;9.50;99.90;;;;;;5063480;28;20020;-55
2021/05/15 00:32:24;;;;;;;5.35;4.05;;;9.40;99.90;;;;;;5069958;28;20028;-53
2021/05/15 00:34:50;;;;;;;5.95;4.28;;;9.40;99.90;;;;;;5066046;28;20028;-53
2021/05/15 00:37:15;;;;;;;5.88;3.55;;;9.30;99.90;;;;;;5072415;28;20047;-53
2021/05/15 00:39:41;;;;;;;5.18;4.07;;;9.30;99.90;;;;;;5070342;28;20394;-54
2021/05/15 00:42:07;;;;;;;4.13;3.72;;;9.30;99.90;;;;;;5068930;28;20043;-54
2021/05/15 00:47:17;;;;;;;5.25;3.60;;;9.40;99.90;;;;;;5070578;28;20052;-52
2021/05/15 00:49:44;;;;;;;8.63;3.20;;;9.40;99.90;;;;;;5070271;28;20052;-55
2021/05/15 00:52:10;;;;;;;5.18;3.47;;;9.40;99.90;;;;;;5069922;28;20536;-57
2021/05/15 00:54:38;;;;;;;5.40;3.65;;;9.40;99.90;;;;;;5061848;28;20484;-54
2021/05/15 00:57:05;;;;;;;5.72;4.15;;;9.40;99.90;;;;;;5083673;28;20055;-55
2021/05/15 00:59:31;;;;;;;5.07;4.03;;;9.30;99.90;;;;;;5078001;28;20401;-56
2021/05/15 01:01:57;;;;;;;4.55;3.55;;;9.30;99.90;;;;;;5067636;28;20172;-56
2021/05/15 01:04:23;;;;;;;5.03;3.50;;;9.40;99.90;;;;;;5068719;28;20032;-55
2021/05/15 01:06:50;;;;;;;5.10;3.45;;;9.40;99.90;;;;;;5073019;28;20028;-59
2021/05/15 01:09:16;;;;;;;7.15;3.83;;;9.30;99.90;;;;;;5065512;28;20483;-54
2021/05/15 01:11:41;;;;;;;6.70;3.28;;;9.30;99.90;;;;;;5069907;28;20028;-55
2021/05/15 01:14:07;;;;;;;5.53;3.67;;;9.30;99.90;;;;;;5062878;28;20043;-53
2021/05/15 01:16:33;;;;;;;3.95;2.75;;;9.30;99.90;;;;;;5067767;28;20028;-54
2021/05/15 01:18:59;;;;;;;4.15;3.28;;;9.30;99.90;;;;;;5067106;28;20379;-55
2021/05/15 01:21:26;;;;;;;6.35;3.28;;;9.40;99.90;;;;;;5073062;28;20035;-55
2021/05/15 01:23:51;;;;;;;4.43;2.80;;;9.30;99.90;;;;;;5078576;28;20096;-57
2021/05/15 01:26:20;;;;;;;4.18;2.95;;;9.40;99.90;;;;;;5079259;28;20482;-54
2021/05/15 01:28:47;;;;;;;5.63;3.03;;;9.40;99.90;;;;;;5066689;28;20094;-56
2021/05/15 01:31:13;;;;;;;3.92;2.60;;;9.50;99.90;;;;;;5078781;28;20028;-56
2021/05/15 01:33:39;;;;;;;4.10;2.33;;;9.60;99.90;;;;;;5069453;28;20043;-54
2021/05/15 01:36:08;;;;;;;3.90;2.35;;;9.60;99.90;;;;;;5069589;28;21646;-58
2021/05/15 01:38:35;;;;;;;2.95;2.22;;;9.60;99.90;;;;;;5070143;28;20043;-54
2021/05/15 01:41:06;;;;;;;3.80;2.42;;;9.60;99.90;;;;;;5072461;28;20050;-55
2021/05/15 01:43:32;;;;;;;4.88;1.95;;;9.60;99.90;;;;;;5074295;28;20490;-53
2021/05/15 01:45:58;;;;;;;4.43;2.05;;;9.70;99.90;;;;;;5072316;28;20056;-54
2021/05/15 01:48:23;;;;;;;1.83;1.60;;;9.70;99.90;;;;;;5074729;28;20486;-53
2021/05/15 01:51:02;;;;;;;1.77;1.58;;;9.80;99.90;;;;;;5064567;28;20032;-55
2021/05/15 01:53:30;;;;;;;2.53;2.10;;;9.80;99.90;;;;;;5071275;28;20031;-56
2021/05/15 01:55:57;;;;;;;3.08;1.90;;;9.80;99.90;;;;;;5069547;28;20024;-55
2021/05/15 01:58:23;;;;;;;4.68;1.98;;;9.70;99.90;;;;;;5072304;28;20029;-54
2021/05/15 02:00:48;;;;;;;1.77;1.38;;;9.80;99.90;;;;;;5070323;28;20090;-55
2021/05/15 02:03:14;;;;;;;3.28;1.45;;;9.70;99.90;;;;;;5065199;28;20059;-54
2021/05/15 02:05:40;;;;;;;5.95;1.65;;;9.70;99.90;;;;;;5067940;28;20036;-53
2021/05/15 02:08:08;;;;;;;3.65;1.70;;;9.80;99.90;;;;;;5072297;28;20046;-54
2021/05/15 02:10:33;;;;;;;1.60;1.50;;;9.70;99.90;;;;;;5069167;28;20078;-54
2021/05/15 02:12:59;;;;;;;3.25;2.30;;;9.70;99.90;;;;;;5078204;28;20020;-55
2021/05/15 02:15:25;;;;;;;4.50;1.90;;;9.70;99.90;;;;;;5070203;28;20547;-56
2021/05/15 02:17:51;;;;;;;4.95;1.42;;;9.70;99.90;;;;;;5073478;28;20032;-57
2021/05/15 02:20:16;;;;;;;2.38;2.00;;;9.80;99.90;;;;;;5066690;28;20086;-54
2021/05/15 02:22:42;;;;;;;3.30;2.13;;;9.70;99.90;;;;;;5072550;28;20503;-56
2021/05/15 02:25:08;;;;;;;3.30;2.03;;;9.70;99.90;;;;;;5073811;28;20475;-57
2021/05/15 02:27:34;;;;;;;2.72;2.15;;;9.70;99.90;;;;;;5071787;28;20024;-57
2021/05/15 02:29:59;;;;;;;2.95;1.20;;;9.70;99.90;;;;;;5077233;28;20388;-55
2021/05/15 02:32:25;;;;;;;3.15;1.73;;;9.70;99.90;;;;;;5060259;28;20029;-55
2021/05/15 02:34:50;;;;;;;4.75;1.77;;;9.80;99.90;;;;;;5066992;28;20394;-56
2021/05/15 02:37:16;;;;;;;2.90;1.80;;;9.80;99.90;;;;;;5065894;28;20103;-54
2021/05/15 02:39:41;;;;;;;6.03;1.80;;;9.80;99.90;;;;;;5057451;28;20071;-54
2021/05/15 02:42:07;;;;;;;2.50;1.60;;;9.90;99.90;;;;;;5061660;28;20060;-54
2021/05/15 02:44:33;;;;;;;2.47;1.80;;;9.90;99.90;;;;;;5066559;28;20115;-54
2021/05/15 02:46:58;;;;;;;6.25;2.05;;;9.90;99.90;;;;;;5069976;28;20070;-56
2021/05/15 02:49:24;;;;;;;3.97;2.30;;;9.90;99.90;;;;;;5063576;28;20025;-55
2021/05/15 02:51:49;;;;;;;2.45;1.80;;;10.00;99.90;;;;;;5063211;28;20021;-54
2021/05/15 02:54:15;;;;;;;2.25;2.00;;;9.90;99.90;;;;;;5066489;28;20035;-56
2021/05/15 02:56:40;;;;;;;4.00;2.40;;;10.00;99.90;;;;;;5067295;28;20404;-54
2021/05/15 02:59:06;;;;;;;4.95;2.50;;;10.00;99.90;;;;;;5067054;28;20016;-54
2021/05/15 03:01:32;;;;;;;4.97;1.80;;;10.00;99.90;;;;;;5063991;28;20300;-54
2021/05/15 03:03:57;;;;;;;3.63;2.67;;;10.00;99.90;;;;;;5064966;28;20032;-56
2021/05/15 03:06:23;;;;;;;2.90;2.17;;;10.00;99.90;;;;;;5067950;28;20038;-54
2021/05/15 03:08:48;;;;;;;3.03;2.15;;;10.00;99.90;;;;;;5060638;28;20577;-57
2021/05/15 03:11:14;;;;;;;3.28;2.10;;;10.00;99.90;;;;;;5059939;28;20040;-56
2021/05/15 03:13:39;;;;;;;2.75;1.88;;;10.00;99.90;;;;;;5059119;28;20115;-55
2021/05/15 03:16:05;;;;;;;4.43;2.00;;;10.00;99.90;;;;;;5062804;28;20307;-54
2021/05/15 03:18:31;;;;;;;4.40;2.50;;;10.00;99.90;;;;;;5071221;28;20028;-54
2021/05/15 03:20:56;;;;;;;2.47;1.73;;;10.00;99.90;;;;;;5065891;28;20451;-56
2021/05/15 03:23:22;;;;;;;3.25;2.15;;;10.00;99.90;;;;;;5065590;28;20510;-54
2021/05/15 03:25:48;;;;;;;6.18;2.17;;;10.00;99.90;;;;;;5063096;28;20103;-57
2021/05/15 03:28:14;;;;;;;5.30;2.25;;;9.90;99.90;;;;;;5068808;28;20029;-57
2021/05/15 03:30:40;;;;;;;5.25;2.47;;;9.90;99.90;;;;;;5067535;28;20028;-56
2021/05/15 03:33:06;;;;;;;5.90;2.95;;;9.90;99.90;;;;;;5065563;28;20366;-56
2021/05/15 03:35:31;;;;;;;5.50;2.72;;;9.90;99.90;;;;;;5068560;28;20024;-56
2021/05/15 03:37:58;;;;;;;3.45;2.63;;;9.90;99.90;;;;;;5063961;28;20115;-54
2021/05/15 03:40:24;;;;;;;7.10;2.40;;;10.00;99.90;;;;;;5060202;28;20079;-54
2021/05/15 03:42:53;;;;;;;3.42;3.03;;;10.00;99.90;;;;;;5067494;28;20032;-54
2021/05/15 03:45:19;;;;;;;3.97;2.95;;;10.00;99.90;;;;;;5066120;28;20139;-54
2021/05/15 03:47:45;;;;;;;6.45;3.10;;;10.00;99.90;;;;;;5062711;28;20461;-56
2021/05/15 03:50:11;;;;;;;4.85;3.20;;;10.00;99.90;;;;;;5060308;28;20034;-56
2021/05/15 03:52:36;;;;;;;7.25;3.53;;;9.90;99.90;;;;;;5063918;28;20056;-53
2021/05/15 03:55:03;;;;;;;3.67;3.17;;;10.00;99.90;;;;;;5058557;28;20032;-56
2021/05/15 03:57:29;;;;;;;4.38;3.50;;;10.00;99.90;;;;;;5065225;28;20025;-53
2021/05/15 03:59:55;;;;;;;9.45;3.90;;;10.00;99.90;;;;;;5060250;28;20035;-54
2021/05/15 04:02:22;;;;;;;5.65;4.10;;;10.00;99.90;;;;;;5063928;28;20044;-56
2021/05/15 04:04:49;;;;;;;9.25;4.30;;;10.00;99.90;;;;;;5064837;28;20032;-54
2021/05/15 04:07:15;;;;;;;5.57;4.15;;;9.90;99.90;;;;;;5064896;28;20032;-55
2021/05/15 04:09:40;;;;;;;8.32;4.97;;;9.90;99.90;;;;;;5063833;28;20467;-55
2021/05/15 04:12:06;;;;;;;12.23;4.57;;;9.90;99.90;;;;;;5061896;28;20028;-54
2021/05/15 04:14:38;;;;;;;6.85;5.00;;;9.90;99.90;;;;;;5065751;28;20063;-53
2021/05/15 04:19:33;;;;;;;6.50;4.45;;;10.10;99.90;;;;;;5066925;28;20025;-53
2021/05/15 04:21:59;;;;;;;6.75;5.22;;;10.10;99.90;;;;;;5062823;28;20155;-54
2021/05/15 04:24:26;;;;;;;5.95;4.40;;;10.00;99.90;;;;;;5071098;28;20530;-55
2021/05/15 04:26:59;;;;;;;8.48;5.78;;;10.10;99.90;;;;;;5065866;28;20032;-54
2021/05/15 04:29:25;;;;;;;6.88;4.32;;;10.10;99.90;;;;;;5067730;28;20099;-54
2021/05/15 04:31:56;;;;;;;5.63;4.28;;;10.10;99.90;;;;;;5061951;28;20021;-55
2021/05/15 04:34:23;;;;;;;10.70;5.03;;;10.10;99.90;;;;;;5069485;28;20029;-54
2021/05/15 04:36:49;;;;;;;12.05;5.45;;;10.10;99.90;;;;;;5067841;28;20173;-53
2021/05/15 04:39:16;;;;;;;8.57;5.57;;;10.10;99.90;;;;;;5064680;28;20111;-54
2021/05/15 04:41:41;;;;;;;10.65;4.63;;;10.20;99.90;;;;;;5064916;28;20043;-54
2021/05/15 04:44:07;;;;;;;9.40;5.38;;;10.20;99.90;;;;;;5064616;28;20033;-54
2021/05/15 04:46:33;;;;;;;8.40;5.03;;;10.20;99.90;;;;;;5064063;28;20402;-56
2021/05/15 04:48:58;;;;;;;7.07;5.78;;;10.20;99.90;;;;;;5064767;28;20028;-54
2021/05/15 04:51:24;;;;;;;9.55;5.63;;;10.20;99.90;;;;;;5057258;28;20072;-53
2021/05/15 04:53:49;;;;;;;10.27;6.13;;;10.20;99.90;;;;;;5060934;28;20025;-53
2021/05/15 04:56:15;;;;;;;9.65;5.75;;;10.20;99.90;;;;;;5060330;28;20060;-56
2021/05/15 04:58:41;;;;;;;12.35;6.30;;;10.20;99.90;;;;;;5060039;28;20021;-54
2021/05/15 05:01:07;;;;;;;9.80;6.00;;;10.20;99.90;;;;;;5058926;28;20090;-54
2021/05/15 05:03:33;;;;;;;9.13;6.10;;;10.30;99.90;;;;;;5059431;28;20025;-53
2021/05/15 05:05:58;;;;;;;8.18;6.90;;;10.30;99.90;;;;;;5061553;28;20028;-55
2021/05/15 05:08:25;;;;;;;14.27;6.53;;;10.30;99.90;;;;;;5055288;28;20064;-53
2021/05/15 05:10:51;;;;;;;9.40;7.07;;;10.30;99.90;;;;;;5060393;28;20418;-53
2021/05/15 05:13:17;;;;;;;11.65;7.22;;;10.30;99.90;;;;;;5064513;28;20118;-54
2021/05/15 05:15:43;;;;;;;12.43;6.95;;;10.30;99.90;;;;;;5056788;28;20033;-54
2021/05/15 05:18:08;;;;;;;10.50;7.03;;;10.40;99.90;;;;;;5061554;28;20032;-55
2021/05/15 05:20:34;;;;;;;9.90;6.97;;;10.40;99.90;;;;;;5057563;28;20032;-55
2021/05/15 05:22:59;;;;;;;10.25;6.50;;;10.40;99.90;;;;;;5059619;28;20021;-54
2021/05/15 05:25:25;;;;;;;12.50;7.03;;;10.40;99.90;;;;;;5060185;28;20028;-55
2021/05/15 05:27:50;;;;;;;10.50;7.57;;;10.50;99.90;;;;;;5062675;28;20017;-54
2021/05/15 05:30:18;;;;;;;8.73;7.32;;;10.50;99.90;;;;;;5065529;28;20028;-54
2021/05/15 05:32:44;;;;;;;11.15;6.50;;;10.60;99.90;;;;;;5058385;28;20025;-55
2021/05/15 05:35:11;;;;;;;9.20;6.97;;;10.60;99.90;;;;;;5062410;28;20025;-53
2021/05/15 05:37:37;;;;;;;13.60;6.55;;;10.60;99.90;;;;;;5062713;28;20039;-56
2021/05/15 05:40:07;;;;;;;9.00;6.70;;;10.70;99.90;;;;;;5060996;28;20024;-53
2021/05/15 05:42:32;;;;;;;7.45;6.20;;;10.70;99.90;;;;;;5060825;28;20103;-55
2021/05/15 05:44:58;;;;;;;12.63;6.80;;;10.70;99.90;;;;;;5095670;22;20063;-54
2021/05/15 05:47:24;;;;;;;7.85;6.18;;;10.80;99.90;;;;;;5070079;28;20386;-54
2021/05/15 05:49:49;;;;;;;8.32;5.90;;;10.80;99.90;;;;;;5067429;28;20025;-58
2021/05/15 05:52:15;;;;;;;6.93;5.45;;;10.80;99.90;;;;;;5071980;28;20024;-55
2021/05/15 05:54:41;;;;;;;6.55;5.03;;;10.80;99.90;;;;;;5068759;28;20025;-56
2021/05/15 05:57:07;;;;;;;9.80;6.10;;;10.80;99.90;;;;;;5068412;28;20024;-53
2021/05/15 05:59:33;;;;;;;7.03;5.53;;;10.90;99.90;;;;;;5067749;28;20108;-51
2021/05/15 06:01:58;;;;;;;6.03;5.20;;;10.90;99.90;;;;;;5073736;28;20035;-54
2021/05/15 06:04:24;;;;;;;5.88;5.13;;;11.00;99.90;;;;;;5068431;28;20036;-54
2021/05/15 06:06:49;;;;;;;5.38;4.88;;;11.10;99.90;;;;;;5068851;28;20040;-51
2021/05/15 06:09:18;;;;;;;4.60;4.20;;;11.20;99.90;;;;;;5062444;28;20032;-55
2021/05/15 06:11:44;;;;;;;5.00;4.07;;;11.30;99.90;;;;;;5070195;28;20028;-54
2021/05/15 06:14:09;;;;;;;5.47;4.20;;;11.40;99.90;;;;;;5075950;28;20116;-52
2021/05/15 06:16:35;;;;;;;5.45;3.22;;;11.50;99.90;;;;;;5068743;28;20566;-55
2021/05/15 06:19:00;;;;;;;4.38;3.42;;;11.60;99.90;;;;;;5068350;28;20549;-54
2021/05/15 06:21:26;;;;;;;6.78;3.95;;;11.60;99.90;;;;;;5074745;28;20035;-50
2021/05/15 06:23:52;;;;;;;6.05;4.47;;;11.70;99.90;;;;;;5069659;28;20040;-52
2021/05/15 06:26:17;;;;;;;5.53;3.45;;;11.70;99.90;;;;;;5069313;28;20028;-52
2021/05/15 06:28:43;;;;;;;4.75;3.88;;;11.80;99.90;;;;;;5068566;28;20035;-55
2021/05/15 06:31:08;;;;;;;3.83;3.15;;;11.90;99.90;;;;;;5075668;28;20032;-55
2021/05/15 06:33:35;;;;;;;3.65;3.17;;;12.00;99.90;;;;;;5074256;28;20521;-52
2021/05/15 06:36:01;;;;;;;7.50;3.00;;;12.10;99.90;;;;;;5068266;28;20039;-53
2021/05/15 06:38:27;;;;;;;4.30;2.88;;;12.10;99.90;;;;;;5069464;28;20506;-54
2021/05/15 06:40:52;;;;;;;4.53;3.03;;;12.00;99.90;;;;;;5071169;28;20078;-52
2021/05/15 06:43:18;;;;;;;4.32;3.22;;;12.10;99.90;;;;;;5077270;28;20028;-52
2021/05/15 06:45:44;;;;;;;3.35;2.88;;;12.00;99.90;;;;;;5068510;28;20032;-52
2021/05/15 06:48:09;;;;;;;6.63;2.63;;;12.10;99.90;;;;;;5066634;28;20020;-54
2021/05/15 06:50:35;;;;;;;2.90;2.63;;;12.10;99.90;;;;;;5067020;28;20048;-53
2021/05/15 06:53:01;;;;;;;2.72;2.50;;;12.10;99.90;;;;;;5071831;28;20818;-51
2021/05/15 06:55:26;;;;;;;3.35;3.05;;;12.20;99.90;;;;;;5058386;28;20795;-51
2021/05/15 06:57:53;;;;;;;4.45;3.53;;;12.10;99.90;;;;;;5058743;28;20037;-52
2021/05/15 07:00:19;;;;;;;5.30;3.03;;;12.10;99.90;;;;;;5041067;28;20029;-50
2021/05/15 07:02:45;;;;;;;5.10;3.28;;;12.00;99.90;;;;;;5058770;28;20028;-52
2021/05/15 07:05:11;;;;;;;4.22;3.10;;;12.00;99.90;;;;;;5065996;28;20032;-53
2021/05/15 07:07:36;;;;;;;3.08;2.20;;;12.00;99.90;;;;;;5067073;28;20395;-53
2021/05/15 07:10:03;;;;;;;4.32;3.17;;;12.00;99.90;;;;;;5066554;28;20025;-53
2021/05/15 07:12:28;;;;;;;4.20;3.15;;;11.90;99.90;;;;;;5072338;28;20027;-52
2021/05/15 07:14:54;;;;;;;3.42;3.13;;;12.00;99.90;;;;;;5065053;28;20025;-53
2021/05/15 07:17:25;;;;;;;3.05;2.75;;;12.00;99.90;;;;;;5067182;28;20035;-54
2021/05/15 07:19:55;;;;;;;3.55;3.15;;;12.00;99.90;;;;;;5062992;28;20107;-55
2021/05/15 07:22:30;;;;;;;3.30;2.67;;;12.20;99.90;;;;;;5075425;28;20120;-54
2021/05/15 07:24:56;;;;;;;3.47;3.17;;;12.30;99.90;;;;;;5050856;28;20029;-55
2021/05/15 07:27:23;;;;;;;3.58;2.53;;;12.60;99.90;;;;;;5070090;28;20021;-51
2021/05/15 07:29:51;;;;;;;3.00;2.70;;;12.70;99.90;;;;;;5065879;28;20028;-57
2021/05/15 07:32:17;;;;;;;4.13;3.10;;;13.00;99.90;;;;;;5066107;28;20380;-52
2021/05/15 07:34:43;;;;;;;3.22;2.47;;;13.20;99.90;;;;;;5065059;28;20036;-51
2021/05/15 07:37:09;;;;;;;4.90;2.33;;;13.40;99.90;;;;;;5064427;28;20029;-50
2021/05/15 07:39:36;;;;;;;3.90;3.20;;;13.50;99.90;;;;;;5063138;28;20067;-56
2021/05/15 07:42:03;;;;;;;4.32;2.92;;;13.50;99.90;;;;;;5069193;28;20017;-51
2021/05/15 07:44:28;;;;;;;4.00;2.72;;;13.40;99.90;;;;;;5070583;28;20024;-51
2021/05/15 07:46:54;;;;;;;3.15;2.85;;;13.50;99.90;;;;;;5068587;28;20037;-51
2021/05/15 07:49:19;;;;;;;3.75;2.80;;;13.60;99.90;;;;;;5062565;28;20032;-53
2021/05/15 07:51:45;;;;;;;3.70;3.10;;;13.60;99.90;;;;;;5063558;28;20483;-55
2021/05/15 07:54:11;;;;;;;7.32;3.00;;;13.70;99.90;;;;;;5061941;28;20494;-54
2021/05/15 07:56:37;;;;;;;4.72;3.10;;;13.80;99.90;;;;;;5063588;28;20043;-51
2021/05/15 07:59:02;;;;;;;3.58;2.97;;;14.00;99.90;;;;;;5061598;28;20036;-55
2021/05/15 08:01:28;;;;;;;4.15;3.35;;;14.00;99.90;;;;;;5062369;28;20888;-53
2021/05/15 08:03:53;;;;;;;4.68;3.58;;;14.10;99.90;;;;;;5068794;28;20028;-52
2021/05/15 08:06:19;;;;;;;10.88;3.40;;;14.10;99.90;;;;;;5064899;28;20116;-55
2021/05/15 08:08:44;;;;;;;6.00;3.22;;;14.10;99.90;;;;;;5046180;28;20433;-52
2021/05/15 08:11:11;;;;;;;4.30;3.28;;;14.20;99.90;;;;;;5070475;28;20032;-52
2021/05/15 08:13:38;;;;;;;5.10;3.10;;;14.30;99.90;;;;;;5068782;28;20663;-56
2021/05/15 08:16:04;;;;;;;4.20;3.05;;;14.40;99.90;;;;;;5067534;28;20035;-55
2021/05/15 08:18:30;;;;;;;3.10;2.80;;;14.50;99.90;;;;;;5070100;28;20025;-51
2021/05/15 08:20:56;;;;;;;5.13;3.17;;;14.60;99.90;;;;;;5074533;28;20082;-52
2021/05/15 08:23:21;;;;;;;4.90;2.75;;;14.50;99.90;;;;;;5074153;28;20047;-53
2021/05/15 08:25:47;;;;;;;3.65;2.67;;;14.50;99.90;;;;;;5070018;28;20032;-53
2021/05/15 08:28:15;;;;;;;7.35;3.28;;;14.60;99.90;;;;;;5060425;28;20071;-54
2021/05/15 08:30:41;;;;;;;2.65;2.20;;;14.70;99.90;;;;;;5058149;28;20032;-55
2021/05/15 08:33:08;;;;;;;5.75;2.60;;;14.50;99.90;;;;;;5068795;28;20091;-54
2021/05/15 08:35:34;;;;;;;3.20;1.67;;;14.60;99.90;;;;;;5065771;28;20029;-52
2021/05/15 08:38:01;;;;;;;4.80;2.08;;;14.50;99.90;;;;;;5066069;28;20486;-51
2021/05/15 08:40:27;;;;;;;5.72;2.45;;;14.70;99.90;;;;;;5059790;28;20090;-54
2021/05/15 08:42:54;;;;;;;5.20;2.67;;;14.80;99.90;;;;;;5073112;28;20033;-54
2021/05/15 08:45:21;;;;;;;3.83;2.47;;;14.70;99.90;;;;;;5061460;28;20040;-51
2021/05/15 08:47:49;;;;;;;4.90;2.38;;;14.70;99.90;;;;;;5060014;28;20027;-53
2021/05/15 08:50:17;;;;;;;4.90;2.60;;;14.90;99.90;;;;;;5059342;28;20024;-51
2021/05/15 08:52:45;;;;;;;6.97;2.30;;;15.00;99.90;;;;;;5060084;28;20025;-52
2021/05/15 08:55:17;;;;;;;3.95;3.05;;;15.20;99.90;;;;;;5066457;28;20040;-54
2021/05/15 08:57:43;;;;;;;4.68;2.83;;;15.30;99.90;;;;;;5064974;28;20056;-52
2021/05/15 09:00:18;;;;;;;3.45;2.97;;;15.30;99.90;;;;;;5067207;28;20904;-54
2021/05/15 09:02:50;;;;;;;4.38;2.75;;;15.10;99.90;;;;;;5069273;28;20090;-55
2021/05/15 09:05:17;;;;;;;5.88;3.20;;;14.80;99.90;;;;;;5070207;28;20046;-52
2021/05/15 09:07:52;;;;;;;6.35;3.50;;;14.80;99.90;;;;;;5050656;28;20024;-56
2021/05/15 09:10:19;;;;;;;;;;;14.60;99.90;;;;;;5069969;28;20023;-51
2021/05/15 09:12:44;;;;;;;7.10;3.88;;;14.30;99.90;;;;;;5071815;28;19908;-54
2021/05/15 09:15:11;;;;;;;8.40;5.38;;;14.20;99.90;;;;;;5069462;28;20020;-52
2021/05/15 09:17:47;;;;;;;18.70;7.97;;;13.90;99.90;;;;;;5069739;28;20039;-55
2021/05/15 09:20:30;;;;;;;14.18;6.20;;;13.00;99.90;;;;;;5060618;28;20035;-56
2021/05/15 09:22:56;;;;;;;9.98;5.50;;;12.70;99.90;;;;;;5062380;28;20035;-54
2021/05/15 09:25:22;;;;;;;18.40;5.55;;;12.40;99.90;;;;;;5067485;28;20044;-52
2021/05/15 09:27:48;;;;;;;11.88;4.82;;;12.10;99.90;;;;;;5057884;28;20109;-55
2021/05/15 09:30:14;;;;;;;10.93;4.78;;;12.00;99.90;;;;;;5058568;28;20040;-56
2021/05/15 09:32:40;;;;;;;11.43;5.63;;;11.90;99.90;;;;;;5060331;28;20040;-54
2021/05/15 09:35:07;;;;;;;7.55;5.00;;;11.90;99.90;;;;;;5062745;28;20029;-57
2021/05/15 09:37:39;;;;;;;14.13;6.78;;;11.90;99.90;;;;;;5058776;28;20115;-58
2021/05/15 09:40:18;;;;;;;9.85;7.35;;;12.00;99.90;;;;;;5058651;28;20074;-55
2021/05/15 09:42:46;;;;;;;8.20;6.25;;;12.20;99.90;;;;;;5064216;28;20529;-52
2021/05/15 09:45:33;;;;;;;8.93;5.38;;;12.20;99.90;;;;;;5063293;28;20490;-52
2021/05/15 09:48:01;;;;;;;8.65;6.03;;;12.30;99.90;;;;;;5069160;28;20032;-54
2021/05/15 09:50:32;;;;;;;14.70;6.15;;;12.50;99.90;;;;;;5065891;28;20024;-53
2021/05/15 09:53:11;;;;;;;10.52;7.38;;;12.60;99.90;;;;;;5067250;28;20021;-52
2021/05/15 09:55:39;;;;;;;10.15;7.75;;;12.40;99.90;;;;;;5057054;28;20033;-53
2021/05/15 09:58:06;;;;;;;12.38;8.25;;;12.20;99.90;;;;;;5044638;28;20037;-51
2021/05/15 10:00:39;;;;;;;16.20;8.73;;;12.10;99.90;;;;;;5062534;28;20021;-52
2021/05/15 10:03:04;;;;;;;18.63;9.50;;;12.10;99.90;;;;;;5067589;28;20259;-54
2021/05/15 10:05:30;;;;;;;17.83;10.25;;;12.00;99.90;;;;;;5056680;28;20537;-52
2021/05/15 10:08:05;;;;;;;19.77;10.85;;;12.00;99.90;;;;;;5057594;28;20028;-56
2021/05/15 10:10:31;;;;;;;21.73;10.70;;;12.10;99.90;;;;;;5059065;28;20488;-53
2021/05/15 10:12:57;;;;;;;9.15;4.68;;;12.30;99.90;;;;;;5069296;28;20472;-59
2021/05/15 10:15:24;;;;;;;9.32;4.38;;;12.20;99.90;;;;;;5031649;28;20036;-52
2021/05/15 10:17:49;;;;;;;5.35;3.00;;;12.20;99.90;;;;;;5056362;28;20025;-54
2021/05/15 10:20:15;;;;;;;5.70;3.25;;;12.20;99.90;;;;;;5057851;28;20052;-52
2021/05/15 10:22:43;;;;;;;3.60;2.67;;;12.40;99.90;;;;;;5059584;28;20029;-57
2021/05/15 10:25:14;;;;;;;5.15;2.30;;;12.50;99.90;;;;;;5062095;28;20506;-54
2021/05/15 10:27:40;;;;;;;3.75;3.08;;;12.60;99.90;;;;;;5066111;28;20404;-53
2021/05/15 10:30:23;;;;;;;2.72;1.73;;;12.60;99.90;;;;;;5039801;28;20398;-55
2021/05/15 10:33:07;;;;;;;6.63;2.38;;;12.60;99.90;;;;;;5050973;28;20368;-55
2021/05/15 10:35:42;;;;;;;9.00;3.63;;;12.60;99.90;;;;;;5060072;28;20033;-52
2021/05/15 10:38:13;;;;;;;3.63;2.33;;;12.60;99.90;;;;;;5060298;28;20543;-55
2021/05/15 10:40:49;;;;;;;2.70;2.28;;;12.60;99.90;;;;;;5061408;28;20395;-56
2021/05/15 10:43:33;;;;;;;6.32;3.92;;;12.70;99.90;;;;;;5062215;28;20033;-51
2021/05/15 10:46:12;;;;;;;5.43;2.55;;;12.70;99.90;;;;;;5067401;28;20024;-54
2021/05/15 10:48:38;;;;;;;4.63;2.70;;;12.60;99.90;;;;;;5049185;28;20032;-52
2021/05/15 10:51:03;;;;;;;4.15;3.20;;;12.80;99.90;;;;;;5063688;28;20029;-53
2021/05/15 10:53:30;;;;;;;4.90;3.30;;;12.90;99.90;;;;;;5050602;28;20016;-51
2021/05/15 10:56:14;;;;;;;4.20;2.75;;;13.10;99.90;;;;;;5064057;28;20031;-54
2021/05/15 10:58:51;;;;;;;9.00;3.15;;;13.20;99.90;;;;;;5043138;28;20032;-54
2021/05/15 11:01:19;;;;;;;4.10;3.10;;;13.30;99.90;;;;;;5061845;28;20020;-55
2021/05/15 11:03:46;;;;;;;6.18;3.67;;;13.30;99.90;;;;;;5062725;28;20074;-53
2021/05/15 11:06:22;;;;;;;6.75;3.20;;;13.60;99.90;;;;;;5064759;28;20029;-53
2021/05/15 11:09:03;;;;;;;4.18;2.10;;;13.60;99.90;;;;;;5068736;28;20075;-52
2021/05/15 11:11:43;;;;;;;3.85;2.30;;;13.70;99.90;;;;;;5060033;28;20567;-53
2021/05/15 11:14:28;;;;;;;6.88;2.70;;;13.80;99.90;;;;;;5072162;28;20039;-55
2021/05/15 11:17:15;;;;;;;4.03;2.80;;;13.90;99.90;;;;;;5061951;28;20930;-55
2021/05/15 11:19:59;;;;;;;2.30;1.70;;;14.10;99.90;;;;;;5066200;28;20521;-52
2021/05/15 11:22:37;;;;;;;2.80;1.70;;;13.90;99.90;;;;;;5049911;28;20397;-53
2021/05/15 11:25:20;;;;;;;1.85;1.27;;;14.40;99.90;;;;;;5065802;28;20028;-54
2021/05/15 11:27:50;;;;;;;2.00;1.33;;;14.60;99.90;;;;;;5068086;28;20035;-56
2021/05/15 11:30:23;;;;;;;6.03;1.40;;;14.80;99.90;;;;;;5066646;28;20502;-55
2021/05/15 11:33:11;;;;;;;3.95;1.05;;;14.80;99.90;;;;;;5065080;28;20033;-55
2021/05/15 11:35:39;;;;;;;3.53;1.00;;;14.90;99.90;;;;;;5069251;28;20550;-54
2021/05/15 11:38:12;;;;;;;4.55;1.75;;;14.90;99.90;;;;;;5065710;28;20452;-55
2021/05/15 11:40:41;;;;;;;6.28;1.00;;;15.20;99.90;;;;;;5069584;28;20033;-57
2021/05/15 11:43:07;;;;;;;1.63;1.02;;;15.40;99.90;;;;;;5058867;28;20399;-55
2021/05/15 11:45:35;;;;;;;2.55;1.40;;;15.80;99.90;;;;;;5061890;28;20059;-53
2021/05/15 11:48:21;;;;;;;1.65;0.80;;;16.10;99.90;;;;;;5066163;28;20105;-57
2021/05/15 11:51:05;;;;;;;1.42;0.70;;;16.10;99.90;;;;;;5054350;28;20028;-55
2021/05/15 11:53:33;;;;;;;2.45;0.80;;;15.90;99.90;;;;;;5065390;28;20398;-56
2021/05/15 11:55:59;;;;;;;2.92;0.93;;;16.00;99.90;;;;;;5035763;28;20041;-55
2021/05/15 11:58:25;;;;;;;8.40;1.35;;;16.00;99.90;;;;;;5059761;28;20324;-53
2021/05/15 12:00:51;;;;;;;3.63;0.95;;;16.10;99.90;;;;;;5068953;28;20390;-56
2021/05/15 12:05:36;;;;;;;2.03;1.08;;;16.20;99.90;;;;;;5080850;28;20340;-54
2021/05/15 12:08:12;;;;;;;4.53;0.98;;;16.10;99.90;;;;;;5058429;28;20030;-52
2021/05/15 12:10:40;;;;;;;39.15;3.42;;;16.20;99.90;;;;;;5064628;28;20036;-51
2021/05/15 12:13:06;;;;;;;8.25;2.22;;;16.50;99.90;;;;;;5062313;28;20025;-55
2021/05/15 12:15:32;;;;;;;3.30;1.27;;;16.60;99.90;;;;;;5067866;28;20025;-52
2021/05/15 12:18:00;;;;;;;2.47;1.20;;;16.80;99.90;;;;;;5065577;28;20131;-51
2021/05/15 12:20:29;;;;;;;2.33;1.23;;;16.80;99.90;;;;;;5058986;28;20035;-54
2021/05/15 12:23:16;;;;;;;2.90;0.75;;;16.80;99.90;;;;;;5064276;28;20039;-56
2021/05/15 12:26:00;;;;;;;3.58;1.10;;;16.50;99.90;;;;;;5062867;28;20028;-53
2021/05/15 12:28:27;;;;;;;3.22;0.88;;;16.30;99.90;;;;;;5058407;28;20056;-51
2021/05/15 12:30:54;;;;;;;7.45;1.10;;;16.10;99.90;;;;;;5063719;28;20104;-53
2021/05/15 12:33:22;;;;;;;4.53;0.90;;;16.00;99.90;;;;;;5067253;28;20029;-55
2021/05/15 12:36:06;;;;;;;2.63;1.20;;;15.90;99.90;;;;;;5067478;28;20082;-51
2021/05/15 12:38:34;;;;;;;1.90;0.90;;;15.90;99.90;;;;;;5068437;28;20055;-53
2021/05/15 12:41:10;;;;;;;2.78;1.25;;;15.70;99.90;;;;;;5073420;28;20119;-52
2021/05/15 12:43:39;;;;;;;2.47;0.90;;;15.40;99.90;;;;;;5056488;28;20025;-52
2021/05/15 12:46:14;;;;;;;7.68;1.02;;;15.20;99.90;;;;;;5064524;28;20509;-52
2021/05/15 12:48:52;;;;;;;2.95;1.23;;;15.30;99.90;;;;;;5059111;28;20107;-51
2021/05/15 12:51:18;;;;;;;2.97;1.10;;;15.30;99.90;;;;;;5070247;28;20029;-52
2021/05/15 12:53:43;;;;;;;6.72;1.48;;;15.20;99.90;;;;;;5072346;28;20048;-55
2021/05/15 12:56:13;;;;;;;9.30;4.45;;;15.10;99.90;;;;;;5062707;28;20621;-55
2021/05/15 12:58:40;;;;;;;1.73;1.20;;;14.80;99.90;;;;;;5062712;28;20048;-53